createdAt,value
2023-01-12T00:32:42.223Z,9.00
2023-01-12T00:36:19.241Z,9.13
2023-01-12T00:39:13.323Z,7.38
2023-01-12T00:42:01.773Z,7.10
2023-01-12T00:44:48.565Z,8.10
2023-01-12T00:47:22.157Z,7.47
2023-01-12T00:49:53.609Z,7.72
2023-01-12T00:52:30.969Z,9.57
2023-01-12T00:55:01.220Z,8.02
2023-01-12T00:57:31.150Z,9.30
2023-01-12T01:00:02.034Z,9.15
2023-01-12T01:02:33.054Z,8.15
2023-01-12T01:05:02.738Z,8.13
2023-01-12T01:07:32.544Z,8.10
2023-01-12T01:10:03.680Z,8.93
2023-01-12T01:12:34.570Z,7.97
2023-01-12T01:15:04.960Z,8.55
2023-01-12T01:17:36.150Z,10.20
2023-01-12T01:20:06.657Z,10.25
2023-01-12T01:22:36.845Z,9.02
2023-01-12T01:25:07.106Z,9.60
2023-01-12T01:27:36.989Z,6.38
2023-01-12T01:30:07.864Z,7.57
2023-01-12T01:32:38.503Z,8.60
2023-01-12T01:35:10.635Z,8.30
2023-01-12T01:37:44.422Z,8.98
2023-01-12T01:42:43.740Z,10.30
2023-01-12T01:45:17.043Z,8.68
2023-01-12T01:47:51.324Z,9.00
2023-01-12T01:50:25.272Z,10.27
2023-01-12T01:52:58.578Z,6.78
2023-01-12T01:55:34.146Z,6.80
2023-01-12T01:58:09.661Z,8.00
2023-01-12T02:00:40.529Z,11.23
2023-01-12T02:03:13.389Z,10.13
2023-01-12T02:05:50.443Z,10.23
2023-01-12T02:08:26.150Z,10.23
2023-01-12T02:10:57.791Z,11.10
2023-01-12T02:13:48.274Z,8.20
2023-01-12T02:16:23.485Z,9.65
2023-01-12T02:19:20.387Z,9.05
2023-01-12T02:22:38.237Z,10.40
2023-01-12T02:25:31.311Z,9.35
2023-01-12T02:28:20.941Z,11.30
2023-01-12T02:31:23.343Z,8.95
2023-01-12T02:34:09.383Z,8.60
2023-01-12T02:36:48.914Z,10.40
2023-01-12T02:39:25.747Z,10.75
2023-01-12T02:42:21.817Z,10.10
2023-01-12T02:44:59.427Z,8.23
2023-01-12T02:47:40.950Z,9.30
2023-01-12T02:50:16.298Z,9.13
2023-01-12T02:52:50.519Z,9.10
2023-01-12T02:55:24.016Z,8.60
2023-01-12T02:57:57.783Z,8.43
2023-01-12T03:00:27.878Z,8.10
2023-01-12T03:02:58.928Z,7.53
2023-01-12T03:05:28.847Z,6.93
2023-01-12T03:08:01.984Z,6.50
2023-01-12T03:10:52.241Z,7.03
2023-01-12T03:13:35.442Z,6.97
2023-01-12T03:16:22.198Z,7.40
2023-01-12T03:19:06.701Z,8.48
2023-01-12T03:21:45.530Z,8.18
2023-01-12T03:24:25.964Z,7.20
2023-01-12T03:27:02.359Z,6.20
2023-01-12T03:29:49.451Z,6.85
2023-01-12T03:32:19.971Z,6.35
2023-01-12T03:34:51.226Z,5.47
2023-01-12T03:37:27.317Z,5.97
2023-01-12T03:40:02.323Z,7.15
2023-01-12T03:42:36.069Z,9.35
2023-01-12T03:45:15.499Z,7.13
2023-01-12T03:47:45.680Z,6.68
2023-01-12T03:50:19.367Z,7.85
2023-01-12T03:52:49.924Z,6.07
2023-01-12T03:55:23.312Z,7.43
2023-01-12T03:57:53.773Z,6.28
2023-01-12T04:00:24.539Z,6.25
2023-01-12T04:03:04.774Z,6.97
2023-01-12T04:05:35.798Z,6.55
2023-01-12T04:08:05.595Z,5.85
2023-01-12T04:10:35.332Z,6.68
2023-01-12T04:13:04.823Z,7.07
2023-01-12T04:15:38.205Z,7.15
2023-01-12T04:18:07.899Z,6.38
2023-01-12T04:20:40.183Z,6.57
2023-01-12T04:23:08.971Z,7.57
2023-01-12T04:25:38.474Z,6.18
2023-01-12T04:28:07.800Z,5.25
2023-01-12T04:30:37.473Z,7.63
2023-01-12T04:33:09.612Z,6.00
2023-01-12T04:35:40.484Z,6.50
2023-01-12T04:38:10.392Z,6.93
2023-01-12T04:40:40.130Z,7.70
2023-01-12T04:43:12.250Z,7.07
2023-01-12T04:45:44.119Z,7.22
2023-01-12T04:48:14.980Z,7.95
2023-01-12T04:50:45.884Z,10.48
2023-01-12T04:53:15.658Z,9.45
2023-01-12T04:55:45.325Z,10.30
2023-01-12T04:58:14.612Z,9.18
2023-01-12T05:00:45.319Z,10.32
2023-01-12T05:03:15.822Z,10.45
2023-01-12T05:05:46.442Z,10.88
2023-01-12T05:08:33.420Z,11.23
2023-01-12T05:11:03.366Z,11.05
2023-01-12T05:13:59.172Z,11.45
2023-01-12T05:16:31.647Z,10.73
2023-01-12T05:19:03.275Z,10.27
2023-01-12T05:21:35.981Z,10.80
2023-01-12T05:24:08.764Z,11.73
2023-01-12T05:26:43.716Z,11.68
2023-01-12T05:29:42.109Z,11.50
2023-01-12T05:32:20.213Z,9.15
2023-01-12T05:34:52.841Z,9.60
2023-01-12T05:37:24.274Z,14.13
2023-01-12T05:39:57.058Z,10.30
2023-01-12T05:42:44.713Z,15.33
2023-01-12T05:45:23.564Z,13.43
2023-01-12T05:48:01.942Z,15.07
2023-01-12T05:50:31.987Z,12.98
2023-01-12T05:53:35.878Z,11.15
2023-01-12T05:56:16.212Z,10.88
2023-01-12T05:58:57.594Z,10.48
2023-01-12T06:01:35.329Z,10.07
2023-01-12T06:04:17.887Z,12.25
2023-01-12T06:06:59.530Z,12.23
2023-01-12T06:14:46.706Z,11.63
2023-01-12T06:17:16.718Z,12.02
2023-01-12T06:27:08.275Z,12.93
2023-01-12T06:29:39.788Z,15.45
2023-01-12T06:32:09.886Z,12.90
2023-01-12T06:34:42.281Z,15.38
2023-01-12T06:37:16.351Z,18.85
2023-01-12T06:39:49.127Z,13.15
2023-01-12T06:42:31.893Z,15.07
2023-01-12T06:45:05.525Z,13.15
2023-01-12T06:47:47.396Z,15.57
2023-01-12T06:50:23.794Z,14.05
2023-01-12T06:52:57.256Z,14.27
2023-01-12T06:55:28.995Z,17.05
2023-01-12T06:58:05.481Z,14.00
2023-01-12T07:00:40.328Z,15.40
2023-01-12T07:03:21.193Z,15.02
2023-01-12T07:05:53.497Z,13.40
2023-01-12T07:08:23.055Z,16.48
2023-01-12T10:37:10.780Z,14.25
2023-01-12T10:39:40.745Z,13.32
2023-01-12T10:42:32.489Z,12.80
2023-01-12T10:45:20.983Z,11.85
2023-01-12T10:47:53.695Z,10.35
2023-01-12T10:50:28.495Z,11.93
2023-01-12T10:53:02.847Z,12.75
2023-01-12T10:55:35.111Z,13.02
2023-01-12T10:58:05.980Z,10.18
2023-01-12T11:00:36.654Z,11.73
2023-01-12T11:03:37.521Z,11.35
2023-01-12T11:06:24.737Z,12.25
2023-01-12T11:08:56.707Z,12.43
2023-01-12T11:11:30.826Z,10.93
2023-01-12T11:14:05.162Z,14.15
2023-01-12T11:16:39.470Z,11.90
2023-01-12T11:19:21.526Z,12.82
2023-01-12T11:21:56.695Z,14.25
2023-01-12T11:24:46.323Z,11.57
2023-01-12T11:27:25.169Z,13.98
2023-01-12T11:30:19.496Z,14.13
2023-01-12T11:33:00.502Z,13.20
2023-01-12T11:35:36.245Z,14.82
2023-01-12T11:38:13.107Z,13.38
2023-01-12T11:40:50.399Z,13.93
2023-01-12T11:43:52.208Z,12.55
2023-01-12T11:46:32.016Z,16.70
2023-01-12T11:49:16.713Z,16.42
2023-01-12T11:51:58.031Z,15.00
2023-01-12T11:54:31.709Z,10.82
2023-01-12T11:57:19.736Z,15.17
2023-01-12T12:00:02.915Z,14.25
2023-01-12T12:02:45.790Z,12.10
2023-01-12T12:05:31.024Z,14.73
2023-01-12T12:08:15.069Z,14.35
2023-01-12T12:10:50.527Z,17.02
2023-01-12T12:13:33.079Z,17.73
2023-01-12T12:16:25.976Z,14.82
2023-01-12T12:19:16.775Z,15.30
2023-01-12T12:21:52.331Z,16.35
2023-01-12T12:24:37.830Z,19.38
2023-01-12T12:27:18.367Z,15.15
2023-01-12T12:30:07.297Z,17.75
2023-01-12T12:32:45.293Z,18.65
2023-01-12T12:35:29.563Z,19.70
2023-01-12T12:38:17.484Z,16.27
2023-01-12T12:41:21.411Z,14.45
2023-01-12T12:44:21.588Z,16.35
2023-01-12T12:47:05.277Z,15.82
2023-01-12T12:49:45.889Z,15.23
2023-01-12T12:52:20.724Z,16.33
2023-01-12T12:54:59.724Z,16.52
2023-01-12T12:57:29.760Z,18.00
2023-01-12T13:00:01.133Z,15.57
2023-01-12T13:02:42.327Z,16.85
2023-01-12T13:05:12.413Z,21.33
2023-01-12T13:07:55.324Z,16.70
2023-01-12T13:10:31.237Z,14.43
2023-01-12T13:13:05.998Z,17.23
2023-01-12T13:15:38.276Z,16.05
2023-01-12T13:18:43.732Z,17.15
2023-01-12T13:21:31.091Z,19.90
2023-01-12T13:24:26.788Z,20.10
2023-01-12T13:27:00.893Z,16.92
2023-01-12T13:29:44.555Z,17.67
2023-01-12T13:32:37.770Z,17.00
2023-01-12T13:35:56.508Z,16.33
2023-01-12T13:38:51.611Z,15.35
2023-01-12T13:41:49.969Z,20.63
2023-01-12T13:44:25.753Z,21.13
2023-01-12T13:47:04.682Z,16.13
2023-01-12T13:49:36.443Z,18.42
2023-01-12T13:52:10.147Z,17.50
2023-01-12T13:54:50.446Z,17.42
2023-01-12T13:57:22.643Z,16.83
2023-01-12T14:00:00.657Z,14.90
2023-01-12T14:02:33.300Z,18.17
2023-01-12T14:05:22.344Z,15.57
2023-01-12T14:08:46.281Z,13.88
2023-01-12T14:11:37.730Z,16.33
2023-01-12T14:14:41.927Z,15.77
2023-01-12T17:52:06.740Z,25.35
2023-01-12T17:54:36.284Z,24.45
2023-01-12T17:57:05.836Z,21.00
2023-01-12T17:59:35.458Z,23.17
2023-01-12T18:02:04.992Z,23.58
2023-01-12T18:04:34.245Z,23.25
2023-01-12T18:07:03.951Z,20.15
2023-01-12T18:09:36.862Z,23.85
2023-01-12T18:12:06.853Z,23.60
2023-01-12T18:14:36.411Z,20.85
2023-01-12T18:17:06.173Z,21.27
2023-01-12T18:19:36.261Z,25.00
2023-01-12T18:22:08.434Z,21.77
2023-01-12T18:24:39.674Z,21.27
2023-01-12T18:27:10.299Z,21.23
2023-01-12T18:29:42.881Z,20.63
2023-01-12T18:32:12.809Z,22.57
2023-01-12T18:34:43.463Z,23.25
2023-01-12T18:37:13.858Z,20.85
2023-01-12T18:39:47.389Z,22.50
2023-01-12T18:42:35.182Z,23.05
2023-01-12T18:45:05.518Z,24.05
2023-01-12T18:47:52.421Z,18.88
2023-01-12T18:50:40.679Z,20.27
2023-01-12T18:53:25.479Z,16.15
2023-01-12T18:55:59.638Z,21.83
2023-01-12T18:58:30.820Z,27.02
2023-01-12T19:01:01.697Z,19.13
2023-01-12T19:03:31.172Z,22.67
2023-01-12T19:06:02.437Z,19.63
2023-01-12T19:08:50.713Z,20.52
2023-01-12T19:11:21.539Z,19.55
2023-01-12T19:14:08.933Z,21.67
2023-01-12T19:16:56.429Z,16.92
2023-01-12T19:19:27.129Z,18.08
2023-01-12T19:22:15.020Z,19.73
2023-01-12T19:25:03.369Z,19.35
2023-01-12T19:27:51.734Z,20.13
2023-01-12T19:30:22.871Z,22.48
2023-01-12T19:32:53.316Z,18.88
2023-01-12T19:35:22.747Z,16.85
2023-01-12T19:37:52.200Z,16.27
2023-01-12T19:40:27.596Z,18.40
2023-01-12T19:43:19.560Z,21.63
2023-01-12T19:45:51.014Z,17.65
2023-01-12T19:48:22.200Z,19.60
2023-01-12T19:50:52.463Z,18.23
2023-01-12T19:53:26.037Z,19.15
2023-01-12T19:58:28.322Z,19.65
2023-01-12T20:00:58.205Z,17.38
2023-01-12T20:03:28.895Z,17.38
2023-01-12T20:05:58.633Z,14.68
2023-01-12T20:08:28.539Z,16.65
2023-01-12T20:10:59.797Z,15.70
2023-01-12T20:13:30.944Z,17.40
2023-01-12T20:16:00.811Z,15.88
2023-01-12T20:18:30.914Z,15.88
2023-01-12T20:21:01.341Z,15.75
2023-01-12T20:23:33.816Z,14.82
2023-01-12T20:26:27.285Z,13.40
2023-01-12T20:29:13.525Z,12.35
2023-01-12T20:31:44.431Z,13.63
2023-01-12T20:34:14.900Z,13.20
2023-01-12T20:36:47.645Z,12.05
2023-01-12T20:39:17.724Z,10.30
2023-01-12T20:41:46.998Z,11.30
2023-01-12T20:44:19.511Z,12.15
2023-01-12T20:46:49.197Z,11.68
2023-01-12T20:49:19.031Z,11.93
2023-01-12T20:51:49.575Z,12.60
2023-01-12T20:54:19.148Z,11.10
2023-01-12T20:56:48.901Z,13.32
2023-01-12T20:59:19.893Z,10.40
2023-01-12T21:01:49.962Z,9.55
2023-01-12T21:04:19.937Z,9.30
2023-01-12T21:06:51.109Z,10.05
2023-01-12T21:09:22.220Z,11.70
2023-01-12T21:11:52.489Z,10.38
2023-01-12T21:14:23.868Z,9.43
2023-01-12T21:16:53.565Z,9.35
2023-01-12T21:19:23.319Z,11.32
2023-01-12T21:21:58.206Z,10.93
2023-01-12T21:24:34.333Z,11.23
2023-01-12T21:27:03.677Z,11.05
2023-01-12T21:29:34.922Z,11.48
2023-01-12T21:32:04.679Z,10.48
2023-01-12T21:34:37.968Z,9.60
2023-01-12T21:37:07.776Z,12.85
2023-01-12T21:39:37.263Z,10.40
2023-01-12T21:42:24.709Z,11.23
2023-01-12T21:44:58.070Z,10.18
2023-01-12T21:47:27.514Z,10.43
2023-01-12T21:49:57.309Z,10.02
2023-01-12T21:52:33.131Z,9.98
2023-01-12T21:55:03.791Z,9.98
2023-01-12T21:57:33.455Z,10.52
2023-01-12T22:00:05.262Z,10.30
2023-01-12T22:02:42.158Z,10.07
2023-01-12T22:05:13.716Z,9.85
2023-01-12T22:07:43.573Z,10.52
2023-01-12T22:10:23.997Z,10.35
2023-01-12T22:12:55.298Z,10.63
2023-01-12T22:15:29.630Z,10.63
2023-01-12T22:17:59.435Z,10.02
2023-01-12T22:20:29.202Z,10.10
2023-01-12T22:22:59.104Z,11.40
2023-01-12T22:25:28.814Z,9.82
2023-01-12T22:28:00.298Z,10.77
2023-01-12T22:30:31.172Z,9.52
2023-01-12T22:33:01.062Z,10.80
2023-01-12T22:35:38.466Z,10.30
2023-01-12T22:38:07.915Z,9.27
2023-01-12T22:40:37.722Z,10.35
2023-01-12T22:43:24.967Z,11.48
2023-01-12T22:45:57.864Z,10.60
2023-01-12T22:48:28.040Z,9.67
2023-01-12T22:51:02.176Z,10.45
2023-01-12T22:53:32.197Z,10.27
2023-01-12T22:56:05.424Z,9.68
2023-01-12T22:58:35.341Z,11.65
2023-01-12T23:01:11.639Z,10.27
2023-01-12T23:03:48.574Z,10.90
2023-01-12T23:06:27.808Z,10.50
2023-01-12T23:08:58.109Z,9.98
2023-01-12T23:11:29.947Z,9.70
2023-01-12T23:14:06.073Z,10.15
2023-01-12T23:16:40.285Z,10.55
2023-01-12T23:19:10.279Z,10.35
2023-01-12T23:21:44.140Z,11.27
2023-01-12T23:24:21.541Z,11.77
2023-01-12T23:26:56.050Z,10.88
2023-01-12T23:29:25.391Z,12.07
2023-01-12T23:31:56.052Z,9.85
2023-01-12T23:34:25.652Z,9.75
2023-01-12T23:36:55.281Z,12.65
2023-01-12T23:39:24.622Z,9.15
2023-01-12T23:41:53.887Z,9.85
2023-01-12T23:44:23.887Z,8.85
2023-01-12T23:46:55.324Z,10.40
2023-01-12T23:49:25.974Z,9.52
2023-01-12T23:51:55.201Z,9.30
2023-01-12T23:54:24.514Z,9.27
2023-01-12T23:56:53.902Z,9.32
2023-01-12T23:59:23.497Z,10.73
